Time;durP1;ratioP1;P1;durP2;ratioP2;P2;SDS_P1;SDS_P2;PMS_P1;PMS_P2;Temp;Humidity;BMP_temperature;BMP_pressure;BME280_temperature;BME280_humidity;BME280_pressure;Samples;Min_cycle;Max_cycle;Signal;HPM_P1;HPM_P2
2022/09/07 00:00:37;;;;;;;1.35;1.25;;;15.40;97.10;;;;;;4989540;28;20046;-57
2022/09/07 00:03:03;;;;;;;2.63;1.45;;;15.40;97.00;;;;;;4991287;28;20023;-52
2022/09/07 00:05:30;;;;;;;2.10;1.25;;;15.40;97.10;;;;;;4988773;28;20304;-59
2022/09/07 00:07:56;;;;;;;0.75;0.73;;;15.40;97.00;;;;;;4991024;28;20145;-58
2022/09/07 00:10:22;;;;;;;2.17;0.80;;;15.30;97.10;;;;;;4993417;28;20394;-59
2022/09/07 00:12:49;;;;;;;1.20;0.93;;;15.40;97.10;;;;;;4990146;28;20030;-58
2022/09/07 00:15:15;;;;;;;0.95;0.90;;;15.30;97.00;;;;;;4992863;28;20018;-57
2022/09/07 00:17:41;;;;;;;1.15;0.80;;;15.30;97.10;;;;;;4989115;28;20039;-58
2022/09/07 00:20:07;;;;;;;1.13;0.70;;;15.30;97.10;;;;;;4991447;28;20033;-56
2022/09/07 00:22:34;;;;;;;2.95;1.50;;;15.30;97.20;;;;;;4987629;28;20030;-56
2022/09/07 00:24:59;;;;;;;2.63;1.48;;;15.20;97.20;;;;;;4989964;28;20030;-57
2022/09/07 00:27:25;;;;;;;2.10;1.02;;;15.20;97.30;;;;;;4993032;28;20504;-56
2022/09/07 00:29:51;;;;;;;0.98;0.90;;;15.20;97.30;;;;;;4989236;28;20034;-57
2022/09/07 00:32:16;;;;;;;2.42;1.20;;;15.20;97.30;;;;;;4987446;28;20556;-58
2022/09/07 00:34:42;;;;;;;1.70;0.95;;;15.20;97.60;;;;;;4977677;28;20101;-58
2022/09/07 00:37:08;;;;;;;1.25;1.15;;;15.20;97.40;;;;;;4987516;28;20037;-59
2022/09/07 00:39:34;;;;;;;4.50;1.20;;;15.20;97.40;;;;;;4992912;28;20027;-56
2022/09/07 00:42:00;;;;;;;1.73;0.88;;;15.20;97.50;;;;;;4990582;28;20085;-57
2022/09/07 00:44:58;;;;;;;0.90;0.90;;;15.10;97.50;;;;;;4992005;28;20041;-57
2022/09/07 00:47:36;;;;;;;1.45;1.33;;;15.10;97.60;;;;;;4983300;28;20102;-56
2022/09/07 00:50:08;;;;;;;0.90;0.75;;;15.10;97.70;;;;;;4984696;28;20030;-57
2022/09/07 00:52:36;;;;;;;0.73;0.73;;;15.10;97.60;;;;;;4985189;28;20069;-56
2022/09/07 00:55:06;;;;;;;1.23;1.08;;;15.00;97.60;;;;;;4990339;28;20030;-57
2022/09/07 00:57:33;;;;;;;1.80;1.10;;;15.00;97.70;;;;;;4992065;28;20032;-57
2022/09/07 01:00:00;;;;;;;2.80;0.90;;;15.00;97.80;;;;;;4986262;28;20030;-57
2022/09/07 01:02:26;;;;;;;3.65;1.50;;;15.00;97.90;;;;;;4988565;28;20057;-56
2022/09/07 01:05:00;;;;;;;1.23;1.05;;;15.00;97.90;;;;;;4986370;28;20073;-57
2022/09/07 01:07:25;;;;;;;1.42;1.00;;;15.00;97.80;;;;;;4985183;28;20022;-56
2022/09/07 01:09:51;;;;;;;3.33;1.33;;;14.90;97.90;;;;;;4992548;28;20479;-57
2022/09/07 01:12:17;;;;;;;1.75;1.13;;;14.90;97.90;;;;;;4988862;28;20019;-58
2022/09/07 01:14:47;;;;;;;2.80;1.30;;;14.90;97.90;;;;;;4991515;28;20014;-54
2022/09/07 01:17:53;;;;;;;1.98;1.27;;;14.90;98.00;;;;;;4987106;28;20363;-58
2022/09/07 01:20:41;;;;;;;1.25;1.08;;;14.90;98.00;;;;;;4991248;28;20170;-58
2022/09/07 01:23:24;;;;;;;0.75;0.70;;;14.90;98.00;;;;;;4984022;28;20039;-55
2022/09/07 01:26:03;;;;;;;1.15;1.05;;;14.90;98.00;;;;;;4988780;28;20030;-57
2022/09/07 01:28:32;;;;;;;0.82;0.82;;;14.90;98.00;;;;;;4988474;28;20157;-57
2022/09/07 01:31:03;;;;;;;3.15;1.10;;;14.90;98.10;;;;;;4990872;28;20105;-57
2022/09/07 01:33:52;;;;;;;1.30;1.20;;;14.80;98.10;;;;;;4987300;28;20043;-57
2022/09/07 01:36:32;;;;;;;1.85;1.40;;;14.80;98.10;;;;;;4984608;28;20018;-57
2022/09/07 01:39:03;;;;;;;3.95;1.08;;;14.80;98.20;;;;;;4986837;28;20048;-57
2022/09/07 01:42:05;;;;;;;0.93;0.90;;;14.80;98.20;;;;;;4984459;28;20022;-58
2022/09/07 01:44:40;;;;;;;1.20;1.08;;;14.80;98.30;;;;;;4981215;28;20034;-57
2022/09/07 01:47:21;;;;;;;1.67;0.80;;;14.80;98.30;;;;;;4983898;28;20030;-56
2022/09/07 01:50:06;;;;;;;1.02;0.90;;;14.80;98.30;;;;;;4991831;28;20061;-57
2022/09/07 01:52:41;;;;;;;2.10;1.25;;;14.80;98.40;;;;;;4985413;28;20069;-57
2022/09/07 01:55:06;;;;;;;1.73;0.90;;;14.80;98.40;;;;;;4991475;28;20229;-57
2022/09/07 01:58:13;;;;;;;1.48;1.38;;;14.80;98.70;;;;;;4987928;28;20483;-56
2022/09/07 02:00:44;;;;;;;1.80;1.30;;;14.70;98.30;;;;;;4974062;28;20052;-57
2022/09/07 02:03:17;;;;;;;1.60;1.50;;;14.80;98.40;;;;;;4986198;28;20025;-58
2022/09/07 02:06:14;;;;;;;1.75;1.30;;;14.70;98.40;;;;;;4988785;28;20718;-57
2022/09/07 02:08:46;;;;;;;0.90;0.90;;;14.70;98.40;;;;;;4974424;28;20046;-58
2022/09/07 02:11:31;;;;;;;1.50;1.33;;;14.70;98.50;;;;;;4987391;28;20506;-58
2022/09/07 02:14:06;;;;;;;1.20;1.08;;;14.70;98.70;;;;;;4990064;28;20061;-57
2022/09/07 02:16:37;;;;;;;1.50;1.20;;;14.70;98.50;;;;;;4988363;28;20474;-58
2022/09/07 02:19:07;;;;;;;2.97;1.23;;;14.70;98.50;;;;;;4989551;28;20030;-54
2022/09/07 02:21:40;;;;;;;2.00;1.38;;;14.70;98.60;;;;;;4986684;28;20342;-58
2022/09/07 02:24:19;;;;;;;2.03;1.50;;;14.70;98.70;;;;;;4988869;28;20498;-56
2022/09/07 02:26:48;;;;;;;1.45;1.35;;;14.70;98.60;;;;;;4987057;28;20030;-57
2022/09/07 02:29:14;;;;;;;2.17;1.45;;;14.70;98.70;;;;;;4990377;28;20478;-53
2022/09/07 02:31:40;;;;;;;1.40;1.25;;;14.60;98.60;;;;;;4986748;28;20033;-57
2022/09/07 02:34:05;;;;;;;2.33;1.08;;;14.70;98.70;;;;;;4989387;28;20336;-57
2022/09/07 02:36:43;;;;;;;2.88;1.30;;;14.70;98.70;;;;;;4986192;28;20078;-57
2022/09/07 02:39:09;;;;;;;2.00;1.08;;;14.60;98.70;;;;;;4988658;28;20030;-58
2022/09/07 02:41:41;;;;;;;5.10;1.48;;;14.70;98.80;;;;;;4986393;28;20026;-57
2022/09/07 02:44:13;;;;;;;1.38;1.20;;;14.60;98.70;;;;;;4990540;28;20438;-57
2022/09/07 02:46:58;;;;;;;2.65;1.30;;;14.60;99.10;;;;;;4986201;28;20022;-57
2022/09/07 02:49:26;;;;;;;1.83;1.10;;;14.60;98.80;;;;;;4990185;28;20109;-58
2022/09/07 02:52:00;;;;;;;1.50;1.40;;;14.60;98.90;;;;;;4984502;28;20117;-54
2022/09/07 02:54:29;;;;;;;1.45;1.27;;;14.60;98.90;;;;;;4988705;28;20097;-57
2022/09/07 02:57:22;;;;;;;1.35;1.25;;;14.60;99.00;;;;;;4990443;28;20434;-58
2022/09/07 03:00:09;;;;;;;1.38;1.10;;;14.60;99.30;;;;;;4989140;28;20023;-57
2022/09/07 03:03:06;;;;;;;2.22;1.70;;;14.60;99.00;;;;;;4985196;28;20019;-57
2022/09/07 03:05:44;;;;;;;2.10;1.58;;;14.60;99.00;;;;;;4985966;28;20104;-57
2022/09/07 03:08:15;;;;;;;1.95;1.80;;;14.50;99.10;;;;;;4990334;28;20118;-59
2022/09/07 03:10:42;;;;;;;1.42;1.33;;;14.50;99.20;;;;;;4985801;28;20019;-57
2022/09/07 03:13:17;;;;;;;3.72;1.80;;;14.50;99.20;;;;;;4987123;28;20022;-58
2022/09/07 03:15:43;;;;;;;2.17;1.90;;;14.50;99.20;;;;;;4977070;28;20376;-56
2022/09/07 03:18:11;;;;;;;1.92;1.60;;;14.50;99.20;;;;;;4988840;28;20027;-55
2022/09/07 03:20:36;;;;;;;1.73;1.63;;;14.50;99.30;;;;;;4990165;28;20054;-57
2022/09/07 03:23:02;;;;;;;1.92;1.50;;;14.50;99.30;;;;;;4983890;28;20058;-56
2022/09/07 03:25:27;;;;;;;1.98;1.73;;;14.50;99.30;;;;;;4990037;28;20101;-57
2022/09/07 03:27:53;;;;;;;2.38;2.08;;;14.50;99.40;;;;;;4984449;28;20065;-57
2022/09/07 03:30:19;;;;;;;2.35;1.80;;;14.40;99.30;;;;;;4987934;28;20035;-58
2022/09/07 03:32:46;;;;;;;2.30;1.85;;;14.40;99.40;;;;;;4984134;28;20080;-58
2022/09/07 03:35:12;;;;;;;2.72;1.85;;;14.40;99.40;;;;;;4988642;28;20077;-58
2022/09/07 03:37:38;;;;;;;2.92;2.15;;;14.40;99.40;;;;;;4990031;28;20053;-59
2022/09/07 03:40:06;;;;;;;3.17;2.05;;;14.40;99.40;;;;;;4983520;28;20077;-55
2022/09/07 03:42:31;;;;;;;2.53;2.28;;;14.40;99.50;;;;;;4983874;28;20026;-55
2022/09/07 03:44:57;;;;;;;3.72;2.30;;;14.40;99.30;;;;;;4983335;28;20034;-58
2022/09/07 03:47:22;;;;;;;6.35;2.58;;;14.40;99.40;;;;;;4987559;28;20022;-59
2022/09/07 03:49:50;;;;;;;3.00;2.40;;;14.40;99.40;;;;;;4989795;28;20022;-57
2022/09/07 03:52:16;;;;;;;3.55;2.75;;;14.40;99.40;;;;;;4984113;28;20015;-55
2022/09/07 03:54:41;;;;;;;3.55;2.50;;;14.40;99.40;;;;;;4989798;28;20569;-57
2022/09/07 03:57:07;;;;;;;4.13;2.38;;;14.40;99.40;;;;;;4982974;28;20026;-59
2022/09/07 03:59:33;;;;;;;4.43;2.40;;;14.40;99.30;;;;;;4989858;28;20438;-57
2022/09/07 04:01:59;;;;;;;4.18;2.58;;;14.40;99.40;;;;;;4982548;28;20061;-58
2022/09/07 04:04:24;;;;;;;3.33;2.70;;;14.40;99.40;;;;;;4987461;28;20031;-57
2022/09/07 04:06:50;;;;;;;5.30;3.10;;;14.40;99.50;;;;;;4988883;28;20026;-57
2022/09/07 04:09:15;;;;;;;3.70;3.08;;;14.40;99.50;;;;;;4987039;28;20077;-56
2022/09/07 04:11:41;;;;;;;5.72;3.00;;;14.40;99.50;;;;;;4989386;28;20105;-58
2022/09/07 04:14:08;;;;;;;2.97;2.67;;;14.40;99.50;;;;;;4981587;28;20097;-58
2022/09/07 04:16:34;;;;;;;3.90;2.92;;;14.40;99.50;;;;;;4988219;28;20033;-57
2022/09/07 04:19:00;;;;;;;3.70;3.15;;;14.40;99.50;;;;;;4987872;28;20026;-56
2022/09/07 04:21:27;;;;;;;3.70;3.22;;;14.40;99.60;;;;;;4984849;28;20023;-58
2022/09/07 04:23:53;;;;;;;3.90;3.50;;;14.40;99.50;;;;;;4988234;28;20030;-58
2022/09/07 04:26:25;;;;;;;5.05;3.28;;;14.40;99.50;;;;;;4982957;28;20089;-56
2022/09/07 04:28:51;;;;;;;4.80;3.22;;;14.40;99.50;;;;;;4992474;28;20501;-56
2022/09/07 04:31:18;;;;;;;4.68;3.00;;;14.40;99.60;;;;;;4984328;28;20029;-57
2022/09/07 04:33:46;;;;;;;4.30;3.50;;;14.40;99.50;;;;;;4992025;28;20030;-58
2022/09/07 04:36:12;;;;;;;6.78;3.50;;;14.40;99.50;;;;;;4989926;28;20015;-57
2022/09/07 04:38:41;;;;;;;4.78;3.40;;;14.40;99.40;;;;;;4990559;28;20176;-56
2022/09/07 04:41:11;;;;;;;5.57;3.15;;;14.40;99.50;;;;;;4990525;28;20062;-54
2022/09/07 04:43:38;;;;;;;5.68;3.60;;;14.40;99.40;;;;;;4988214;28;20393;-55
2022/09/07 04:46:06;;;;;;;4.53;3.50;;;14.40;99.50;;;;;;4990761;28;20026;-57
2022/09/07 04:48:31;;;;;;;3.50;3.15;;;14.40;99.50;;;;;;4986230;28;20031;-57
2022/09/07 04:51:05;;;;;;;7.47;3.95;;;14.40;99.50;;;;;;4991927;28;20089;-58
2022/09/07 04:53:31;;;;;;;4.72;3.42;;;14.40;99.40;;;;;;4987954;28;20242;-56
2022/09/07 04:55:58;;;;;;;6.65;3.42;;;14.40;99.40;;;;;;4991303;28;20335;-58
2022/09/07 04:58:23;;;;;;;6.32;3.15;;;14.40;99.40;;;;;;4987997;28;20026;-54
2022/09/07 05:00:49;;;;;;;7.45;3.33;;;14.40;99.40;;;;;;4989780;28;20018;-58
2022/09/07 05:03:15;;;;;;;4.72;3.65;;;14.50;99.50;;;;;;4992416;28;20010;-56
2022/09/07 05:05:40;;;;;;;4.35;3.72;;;14.40;99.50;;;;;;4988865;28;20110;-55
2022/09/07 05:08:06;;;;;;;4.70;3.58;;;14.40;99.50;;;;;;4992551;28;20116;-56
2022/09/07 05:10:31;;;;;;;5.03;3.00;;;14.50;99.60;;;;;;4989851;28;20493;-57
2022/09/07 05:12:58;;;;;;;9.50;3.80;;;14.40;99.60;;;;;;4985419;28;20018;-58
2022/09/07 05:15:23;;;;;;;5.40;3.53;;;14.40;99.80;;;;;;4988971;28;20023;-58
2022/09/07 05:17:50;;;;;;;3.72;3.10;;;14.40;99.80;;;;;;4991236;28;20076;-57
2022/09/07 05:20:18;;;;;;;4.40;3.25;;;14.50;99.80;;;;;;4988610;28;20544;-58
2022/09/07 05:22:45;;;;;;;7.13;4.03;;;14.50;99.90;;;;;;4989859;28;20105;-58
2022/09/07 05:25:10;;;;;;;6.00;3.97;;;14.40;99.80;;;;;;4987161;28;20026;-55
2022/09/07 05:27:36;;;;;;;7.13;3.55;;;14.50;99.80;;;;;;4989567;28;20080;-58
2022/09/07 05:30:02;;;;;;;5.90;3.75;;;14.50;99.80;;;;;;4986201;28;20077;-56
2022/09/07 05:32:27;;;;;;;4.07;3.50;;;14.50;99.80;;;;;;4988400;28;20428;-56
2022/09/07 05:34:53;;;;;;;6.97;3.75;;;14.50;99.90;;;;;;4990967;28;20026;-57
2022/09/07 05:37:19;;;;;;;7.00;3.80;;;14.50;99.90;;;;;;4988086;28;20562;-55
2022/09/07 05:39:44;;;;;;;5.18;3.65;;;14.50;99.90;;;;;;4989566;28;20065;-57
2022/09/07 05:42:10;;;;;;;4.30;3.45;;;14.60;99.70;;;;;;4986554;28;20042;-57
2022/09/07 05:44:36;;;;;;;4.38;3.50;;;14.60;99.60;;;;;;4987819;28;20121;-56
2022/09/07 05:47:02;;;;;;;4.32;3.50;;;14.70;99.50;;;;;;4986017;28;20034;-56
2022/09/07 05:49:28;;;;;;;5.80;3.83;;;14.70;99.50;;;;;;4988396;28;20044;-57
2022/09/07 05:51:54;;;;;;;5.43;3.78;;;14.80;99.20;;;;;;4989819;28;20446;-56
2022/09/07 05:54:19;;;;;;;4.03;3.35;;;14.80;99.10;;;;;;4987682;28;20022;-55
2022/09/07 05:56:45;;;;;;;4.72;3.35;;;14.80;99.00;;;;;;4989941;28;20027;-55
2022/09/07 05:59:11;;;;;;;5.93;3.30;;;14.90;98.90;;;;;;4986489;28;20421;-54
2022/09/07 06:01:36;;;;;;;4.13;3.28;;;14.90;98.80;;;;;;4987549;28;20030;-58
2022/09/07 06:04:02;;;;;;;5.10;3.55;;;15.00;98.70;;;;;;4991158;28;20073;-56
2022/09/07 06:06:28;;;;;;;5.88;3.63;;;15.00;98.50;;;;;;4988031;28;20053;-55
2022/09/07 06:08:54;;;;;;;7.25;3.55;;;15.00;98.50;;;;;;4990626;28;20064;-56
2022/09/07 06:11:21;;;;;;;5.15;3.38;;;15.10;98.40;;;;;;4989585;28;20369;-54
2022/09/07 06:13:48;;;;;;;6.75;3.35;;;15.10;98.40;;;;;;4985393;28;20029;-55
2022/09/07 06:16:14;;;;;;;4.40;3.33;;;15.20;98.40;;;;;;4987226;28;20685;-53
2022/09/07 06:18:42;;;;;;;7.45;3.75;;;15.20;98.40;;;;;;4991141;28;20092;-54
2022/09/07 06:21:10;;;;;;;4.82;3.40;;;15.20;98.20;;;;;;4985528;28;20038;-56
2022/09/07 06:23:38;;;;;;;5.78;3.53;;;15.20;98.20;;;;;;5016598;23;20041;-52
2022/09/07 06:26:04;;;;;;;4.88;3.65;;;15.20;98.10;;;;;;5002566;28;20034;-52
2022/09/07 06:28:33;;;;;;;4.63;3.30;;;15.20;98.10;;;;;;4996736;28;20026;-48
2022/09/07 06:31:04;;;;;;;3.83;3.35;;;15.30;98.20;;;;;;4991167;28;20061;-51
2022/09/07 06:33:30;;;;;;;6.43;3.40;;;15.30;98.20;;;;;;4999830;28;20494;-51
2022/09/07 06:35:57;;;;;;;5.63;2.92;;;15.30;98.00;;;;;;4976514;28;20105;-48
2022/09/07 06:38:23;;;;;;;8.93;3.35;;;15.30;98.10;;;;;;4982820;28;20513;-50
2022/09/07 06:40:49;;;;;;;6.65;3.05;;;15.40;98.20;;;;;;4975404;28;20027;-48
2022/09/07 06:43:14;;;;;;;5.38;3.17;;;15.30;98.00;;;;;;4982286;28;20025;-51
2022/09/07 06:45:40;;;;;;;5.40;3.38;;;15.40;98.20;;;;;;4975926;28;20098;-51
2022/09/07 06:48:06;;;;;;;4.75;3.17;;;15.40;98.50;;;;;;4979917;28;20038;-48
2022/09/07 06:50:32;;;;;;;5.25;2.90;;;15.40;98.10;;;;;;4981567;28;20026;-50
2022/09/07 06:52:58;;;;;;;4.13;3.30;;;15.40;98.20;;;;;;4975608;28;20034;-51
2022/09/07 06:55:27;;;;;;;9.13;3.53;;;15.50;98.30;;;;;;4981991;28;20026;-51
2022/09/07 06:57:53;;;;;;;4.25;2.92;;;15.50;98.60;;;;;;4966774;28;20023;-50
2022/09/07 07:00:19;;;;;;;4.65;3.00;;;15.50;98.90;;;;;;4982420;28;20015;-48
2022/09/07 07:02:44;;;;;;;4.85;3.28;;;15.50;99.60;;;;;;4982321;28;20026;-51
2022/09/07 07:05:10;;;;;;;5.20;2.92;;;15.50;99.90;;;;;;4976630;28;20025;-48
2022/09/07 07:07:35;;;;;;;4.75;2.95;;;15.50;99.90;;;;;;4988957;28;20038;-52
2022/09/07 07:10:01;;;;;;;4.32;3.47;;;15.50;99.90;;;;;;4980528;28;20030;-49
2022/09/07 07:12:29;;;;;;;5.07;3.17;;;15.40;99.90;;;;;;4975520;28;20395;-52
2022/09/07 07:14:55;;;;;;;5.43;3.50;;;15.40;99.90;;;;;;4986651;28;20037;-47
2022/09/07 07:17:21;;;;;;;3.75;2.80;;;15.40;99.90;;;;;;4978464;28;20015;-50
2022/09/07 07:19:47;;;;;;;4.35;2.97;;;15.40;99.90;;;;;;4978515;28;20055;-52
2022/09/07 07:22:12;;;;;;;3.72;2.70;;;15.40;99.80;;;;;;4978447;28;20038;-50
2022/09/07 07:24:38;;;;;;;7.93;3.05;;;15.40;99.80;;;;;;4977320;28;20081;-51
2022/09/07 07:27:04;;;;;;;4.40;3.38;;;15.40;99.90;;;;;;4979594;28;20038;-50
2022/09/07 07:29:30;;;;;;;4.78;3.45;;;15.40;99.90;;;;;;4975844;28;20030;-47
2022/09/07 07:31:56;;;;;;;6.00;3.60;;;15.40;99.90;;;;;;4984634;28;20022;-48
2022/09/07 07:34:22;;;;;;;6.68;3.92;;;15.40;99.90;;;;;;4976936;28;20019;-47
2022/09/07 07:36:48;;;;;;;7.78;3.88;;;15.30;99.90;;;;;;4978273;28;20161;-48
2022/09/07 07:39:14;;;;;;;6.15;4.13;;;15.30;99.90;;;;;;4976791;28;20153;-47
2022/09/07 07:41:39;;;;;;;4.75;3.63;;;15.20;99.90;;;;;;4977544;28;20129;-48
2022/09/07 07:44:05;;;;;;;3.97;3.45;;;15.20;99.90;;;;;;4979454;28;20035;-46
2022/09/07 07:46:31;;;;;;;4.40;3.30;;;15.10;99.90;;;;;;4975965;28;20027;-46
2022/09/07 07:48:57;;;;;;;4.93;3.40;;;15.10;99.90;;;;;;4986198;28;20086;-47
2022/09/07 07:51:23;;;;;;;5.05;3.75;;;15.10;99.90;;;;;;4978017;28;20011;-46
2022/09/07 07:53:49;;;;;;;4.70;3.60;;;15.10;99.90;;;;;;4979803;28;20022;-48
2022/09/07 07:56:15;;;;;;;4.53;3.50;;;15.00;99.90;;;;;;4978256;28;20026;-46
2022/09/07 07:58:45;;;;;;;6.82;4.50;;;15.00;99.90;;;;;;4977739;28;20049;-48
2022/09/07 08:01:13;;;;;;;6.40;3.75;;;15.00;99.90;;;;;;4978494;28;20528;-50
2022/09/07 08:03:40;;;;;;;5.28;3.95;;;14.90;99.90;;;;;;4981280;28;20435;-46
2022/09/07 08:06:12;;;;;;;6.57;4.00;;;14.90;99.90;;;;;;4983582;28;20529;-50
2022/09/07 08:08:38;;;;;;;8.20;3.95;;;14.90;99.90;;;;;;4986680;28;20450;-47
2022/09/07 08:11:08;;;;;;;4.57;4.07;;;14.80;99.90;;;;;;4980627;28;20335;-48
2022/09/07 08:13:40;;;;;;;7.13;3.70;;;14.70;99.90;;;;;;4981714;28;20419;-48
2022/09/07 08:16:07;;;;;;;4.60;4.20;;;14.60;99.90;;;;;;4984226;28;20424;-49
2022/09/07 08:18:34;;;;;;;6.63;4.93;;;14.60;99.90;;;;;;4981220;28;20435;-49
2022/09/07 08:21:11;;;;;;;4.63;4.20;;;14.60;99.90;;;;;;4994409;28;20363;-47
2022/09/07 08:23:37;;;;;;;4.78;3.88;;;14.50;99.90;;;;;;4981356;28;20038;-46
2022/09/07 08:26:04;;;;;;;6.20;4.43;;;14.50;99.90;;;;;;4982100;28;20367;-47
2022/09/07 08:28:32;;;;;;;8.57;4.75;;;14.50;99.90;;;;;;4979292;28;20026;-47
2022/09/07 08:30:58;;;;;;;8.38;4.63;;;14.50;99.90;;;;;;4982832;28;20046;-46
2022/09/07 08:33:24;;;;;;;8.07;4.80;;;14.40;99.90;;;;;;4984606;28;20037;-48
2022/09/07 08:35:57;;;;;;;7.57;4.28;;;14.40;99.90;;;;;;4978409;28;20453;-52
2022/09/07 08:38:23;;;;;;;10.68;4.63;;;14.40;99.90;;;;;;4983283;28;20019;-47
2022/09/07 08:40:49;;;;;;;9.10;4.75;;;14.40;99.90;;;;;;4975964;28;20451;-47
2022/09/07 08:43:28;;;;;;;10.15;4.80;;;14.40;99.90;;;;;;4984367;28;20536;-47
2022/09/07 08:46:02;;;;;;;5.57;4.47;;;14.40;99.90;;;;;;4976499;28;20070;-50
2022/09/07 08:48:33;;;;;;;6.00;4.20;;;14.40;99.90;;;;;;4984997;28;20050;-47
2022/09/07 08:50:58;;;;;;;9.68;4.10;;;14.40;99.90;;;;;;4983298;28;20032;-46
2022/09/07 08:53:24;;;;;;;14.77;4.97;;;14.40;99.90;;;;;;4979308;28;20026;-51
2022/09/07 08:56:23;;;;;;;9.30;5.18;;;14.30;99.90;;;;;;4984369;28;20065;-47
2022/09/07 08:58:54;;;;;;;10.23;5.75;;;14.40;99.90;;;;;;4991414;28;20023;-49
2022/09/07 09:01:46;;;;;;;5.10;4.00;;;14.40;99.90;;;;;;4981143;28;20106;-46
2022/09/07 09:04:26;;;;;;;6.95;4.28;;;14.40;99.90;;;;;;4978088;28;20081;-49
2022/09/07 09:07:12;;;;;;;9.68;4.50;;;14.40;99.90;;;;;;4988601;28;20491;-50
2022/09/07 09:10:02;;;;;;;10.25;5.03;;;14.40;99.90;;;;;;4983890;28;20475;-51
2022/09/07 09:13:01;;;;;;;4.38;3.78;;;14.50;99.90;;;;;;4984671;28;20034;-49
2022/09/07 09:15:32;;;;;;;4.03;3.42;;;14.50;99.90;;;;;;4989869;28;20109;-46
2022/09/07 09:18:46;;;;;;;4.07;3.67;;;14.50;99.90;;;;;;4990666;28;20037;-47
2022/09/07 09:21:14;;;;;;;4.05;3.67;;;14.50;99.90;;;;;;4978855;28;20491;-49
2022/09/07 09:23:42;;;;;;;4.50;3.17;;;14.50;99.90;;;;;;4987503;28;20022;-47
2022/09/07 09:26:13;;;;;;;4.85;4.05;;;14.50;99.90;;;;;;4991144;28;20061;-48
2022/09/07 09:28:39;;;;;;;8.98;4.30;;;14.50;99.90;;;;;;4992387;28;20043;-46
2022/09/07 09:31:05;;;;;;;6.00;4.05;;;14.50;99.90;;;;;;4991643;28;20032;-48
2022/09/07 09:33:30;;;;;;;9.30;4.20;;;14.60;99.90;;;;;;4992089;28;20014;-46
2022/09/07 09:35:59;;;;;;;5.32;3.88;;;14.60;99.90;;;;;;4990532;28;20095;-47
2022/09/07 09:38:33;;;;;;;6.25;3.92;;;14.60;99.90;;;;;;4991703;28;20108;-46
2022/09/07 09:41:14;;;;;;;5.18;3.83;;;14.60;99.90;;;;;;4992019;28;20475;-47
2022/09/07 09:43:39;;;;;;;4.53;3.80;;;14.70;99.90;;;;;;4991952;28;20068;-47
2022/09/07 09:46:17;;;;;;;4.22;3.83;;;14.70;99.90;;;;;;4991857;28;20408;-48
2022/09/07 09:48:56;;;;;;;4.72;3.70;;;14.80;99.90;;;;;;4991751;28;20089;-50
2022/09/07 09:51:24;;;;;;;5.50;4.10;;;14.80;99.90;;;;;;4999341;28;20030;-49
2022/09/07 09:53:52;;;;;;;5.25;4.05;;;14.90;99.90;;;;;;4991243;28;20034;-45
2022/09/07 09:56:17;;;;;;;4.13;3.72;;;14.90;99.90;;;;;;4991831;28;20018;-48
2022/09/07 09:58:46;;;;;;;4.13;3.72;;;15.00;99.90;;;;;;4990336;28;20041;-48
2022/09/07 10:01:31;;;;;;;6.75;3.92;;;15.00;99.90;;;;;;4991103;28;20470;-50
2022/09/07 10:04:16;;;;;;;4.82;4.38;;;15.00;99.90;;;;;;4991287;28;20080;-46
2022/09/07 10:06:54;;;;;;;4.53;3.70;;;15.10;99.90;;;;;;4991037;28;20513;-46
2022/09/07 10:09:23;;;;;;;5.68;3.97;;;15.20;99.90;;;;;;4988275;28;20027;-48
2022/09/07 10:11:58;;;;;;;4.18;3.38;;;15.40;99.90;;;;;;4990740;28;20097;-47
2022/09/07 10:14:27;;;;;;;5.80;4.20;;;15.50;99.90;;;;;;4989722;28;20501;-46
2022/09/07 10:16:53;;;;;;;7.22;4.55;;;15.70;99.90;;;;;;4991205;28;20544;-46
2022/09/07 10:19:38;;;;;;;4.18;3.78;;;15.90;99.90;;;;;;4991176;28;20105;-46
2022/09/07 10:22:37;;;;;;;5.70;3.95;;;15.90;99.90;;;;;;4973381;28;20046;-48
2022/09/07 10:25:28;;;;;;;5.65;3.75;;;16.10;99.90;;;;;;4989022;28;20091;-47
2022/09/07 10:28:01;;;;;;;5.65;3.85;;;16.20;99.90;;;;;;4982794;28;20038;-49
2022/09/07 10:30:32;;;;;;;7.03;4.28;;;16.30;99.90;;;;;;4990789;28;20110;-48
2022/09/07 10:33:17;;;;;;;4.75;4.25;;;16.40;99.90;;;;;;4990533;28;20034;-46
2022/09/07 10:35:58;;;;;;;4.05;3.40;;;16.40;99.90;;;;;;4990753;28;20253;-47
2022/09/07 10:38:28;;;;;;;5.85;3.90;;;16.50;99.90;;;;;;4987472;28;20027;-47
2022/09/07 10:41:06;;;;;;;5.07;4.00;;;16.60;99.90;;;;;;4989953;28;20034;-46
2022/09/07 10:43:31;;;;;;;6.38;3.92;;;16.70;99.90;;;;;;4990511;28;20077;-46
2022/09/07 10:46:20;;;;;;;5.30;3.80;;;16.80;99.90;;;;;;4990858;28;20034;-47
2022/09/07 10:48:51;;;;;;;4.43;3.63;;;16.90;99.90;;;;;;4990400;28;20487;-46
2022/09/07 10:51:38;;;;;;;4.47;4.07;;;17.00;99.90;;;;;;4990049;28;20026;-46
2022/09/07 10:54:53;;;;;;;4.00;3.70;;;17.00;99.90;;;;;;4987940;28;20148;-46
2022/09/07 10:57:45;;;;;;;3.92;3.50;;;17.20;99.90;;;;;;4981043;28;20027;-46
2022/09/07 11:00:13;;;;;;;4.70;4.05;;;17.20;99.90;;;;;;4990401;28;20022;-48
2022/09/07 11:02:53;;;;;;;4.40;3.97;;;17.20;99.90;;;;;;4990208;28;20022;-47
2022/09/07 11:05:46;;;;;;;5.03;3.90;;;17.30;99.90;;;;;;4985379;28;20034;-46
2022/09/07 11:08:23;;;;;;;4.75;4.35;;;17.50;99.90;;;;;;4988993;28;20022;-47
2022/09/07 11:11:10;;;;;;;7.10;5.10;;;17.70;99.90;;;;;;4990179;28;20386;-48
2022/09/07 11:13:38;;;;;;;;;;;17.80;99.90;;;;;;4990564;28;20069;-47
2022/09/07 11:16:13;;;;;;;5.22;3.92;;;17.90;99.90;;;;;;4990227;28;20356;-46
2022/09/07 11:18:51;;;;;;;8.20;5.22;;;18.00;99.90;;;;;;4989986;28;20110;-46
2022/09/07 11:21:21;;;;;;;8.35;5.20;;;18.10;99.90;;;;;;4981762;28;20023;-48
2022/09/07 11:23:56;;;;;;;6.05;5.30;;;18.30;99.90;;;;;;4989684;28;20368;-48
2022/09/07 11:26:37;;;;;;;5.57;5.05;;;18.40;99.90;;;;;;4986619;28;20061;-47
2022/09/07 11:29:19;;;;;;;7.50;5.15;;;18.50;99.90;;;;;;4989629;28;20034;-46
2022/09/07 11:31:49;;;;;;;5.55;5.05;;;18.50;99.90;;;;;;4989497;28;20081;-46
2022/09/07 11:34:37;;;;;;;5.95;5.05;;;18.60;99.90;;;;;;4981964;28;20068;-46
2022/09/07 11:37:15;;;;;;;6.38;4.80;;;18.70;99.90;;;;;;4989445;28;20532;-46
2022/09/07 11:39:52;;;;;;;7.13;4.90;;;18.80;99.90;;;;;;4996113;28;20027;-46
2022/09/07 11:42:47;;;;;;;5.35;4.85;;;18.80;99.90;;;;;;5003459;28;20053;-49
2022/09/07 11:45:24;;;;;;;4.85;4.10;;;18.90;99.90;;;;;;4994643;28;20018;-48
2022/09/07 11:48:15;;;;;;;7.93;5.50;;;19.00;99.90;;;;;;4996316;28;20486;-47
2022/09/07 11:50:46;;;;;;;5.60;3.88;;;19.00;99.90;;;;;;4992120;28;20434;-46
2022/09/07 11:53:20;;;;;;;5.28;4.65;;;19.20;99.90;;;;;;4996042;28;20026;-46
2022/09/07 11:56:14;;;;;;;5.78;4.78;;;19.30;99.90;;;;;;4992403;28;20033;-46
2022/09/07 11:59:33;;;;;;;7.13;4.72;;;19.40;99.90;;;;;;4969385;28;20062;-50
2022/09/07 12:02:17;;;;;;;5.93;4.55;;;19.40;99.90;;;;;;4932755;29;20476;-46
2022/09/07 12:05:15;;;;;;;5.43;4.93;;;19.50;99.90;;;;;;4990643;28;20122;-46
2022/09/07 12:07:44;;;;;;;4.97;4.10;;;19.60;99.90;;;;;;4991728;28;20133;-46
2022/09/07 12:10:33;;;;;;;5.28;4.38;;;19.60;99.90;;;;;;4996273;28;20026;-45
2022/09/07 12:13:35;;;;;;;5.43;4.82;;;19.70;99.90;;;;;;4994058;28;20026;-46
2022/09/07 12:16:31;;;;;;;6.28;4.00;;;19.90;99.90;;;;;;4995829;28;20521;-45
2022/09/07 12:19:06;;;;;;;4.07;3.63;;;20.00;99.90;;;;;;4996234;28;20075;-45
2022/09/07 12:21:45;;;;;;;4.40;4.00;;;20.10;99.90;;;;;;4994252;28;20038;-49
2022/09/07 12:24:37;;;;;;;6.13;4.18;;;20.10;99.90;;;;;;5017624;23;20038;-50
2022/09/07 12:27:24;;;;;;;3.72;3.42;;;20.20;99.90;;;;;;4993164;28;20034;-51
2022/09/07 12:30:00;;;;;;;4.05;3.63;;;20.30;99.90;;;;;;4988638;28;20070;-50
2022/09/07 12:32:47;;;;;;;5.65;4.05;;;20.40;99.90;;;;;;4995492;28;20254;-51
2022/09/07 12:35:25;;;;;;;4.78;4.03;;;20.50;99.90;;;;;;4987844;28;20442;-49
2022/09/07 12:37:51;;;;;;;4.65;4.10;;;20.60;99.90;;;;;;4995556;28;20031;-49
2022/09/07 12:40:35;;;;;;;6.05;4.10;;;20.70;99.90;;;;;;4995810;28;20028;-51
2022/09/07 12:43:12;;;;;;;6.72;4.00;;;20.80;99.90;;;;;;4995530;28;20026;-49
2022/09/07 12:45:38;;;;;;;5.25;3.83;;;20.80;99.90;;;;;;4990788;28;20315;-49
2022/09/07 12:48:15;;;;;;;6.82;4.57;;;20.90;99.90;;;;;;4994841;28;20080;-49
2022/09/07 12:51:04;;;;;;;4.72;3.88;;;21.00;99.90;;;;;;4988312;28;20042;-50
2022/09/07 12:54:12;;;;;;;5.78;4.70;;;21.00;99.90;;;;;;4988655;28;20097;-49
2022/09/07 12:56:45;;;;;;;4.60;4.20;;;21.10;99.90;;;;;;4988594;28;20446;-51
2022/09/07 12:59:38;;;;;;;4.85;4.10;;;21.20;99.90;;;;;;4992659;28;20026;-52
2022/09/07 13:02:31;;;;;;;4.63;3.83;;;21.20;99.90;;;;;;4992329;28;20027;-49
2022/09/07 13:05:20;;;;;;;4.78;3.63;;;21.30;99.90;;;;;;4992424;28;20026;-53
2022/09/07 13:08:08;;;;;;;4.50;3.92;;;21.40;99.90;;;;;;4989198;28;20118;-51
2022/09/07 13:10:41;;;;;;;4.10;3.63;;;21.40;99.90;;;;;;4988935;28;20038;-51
2022/09/07 13:13:13;;;;;;;4.10;3.70;;;21.60;99.90;;;;;;4992316;28;20755;-50
2022/09/07 13:16:01;;;;;;;4.63;4.22;;;21.60;99.90;;;;;;4990885;28;20029;-50